Terminal Aerodrome Forecast
Issued by NWS Austin/San Antonio, TX

Home | Current Version | Previous Version | Text Only | Print | Product List | Glossary On
Versions: 1 2 3 4 5 6 7 8 9 10 11 12 13 14 15 16 17 18 19 20 21 22 23 24 25 26 27 28 29 30 31 32 33 34 35 36 37
000
FTUS44 KEWX 251327 AAA
TAFSAT
TAF AMD
KSAT 251327Z 2513/2618 VRB03KT P6SM FEW050 BKN110
     FM251400 29005KT P6SM SCT250
     FM252100 21005KT P6SM FEW250
     FM260800 17005KT 3SM BR OVC015
     FM261600 17005KT P6SM OVC030=

USA.gov is the U.S. government's official web portal to all federal, state and local government web resources and services.